sensor_id;sensor_type;location;lat;lon;timestamp;P1;durP1;ratioP1;P2;durP2;ratioP2
72156;SDS011;60035;52.122;5.406;2023-06-24T00:00:56;9.98;;;4.80;;
72156;SDS011;60035;52.122;5.406;2023-06-24T00:03:23;10.27;;;4.32;;
72156;SDS011;60035;52.122;5.406;2023-06-24T00:05:50;8.82;;;4.57;;
72156;SDS011;60035;52.122;5.406;2023-06-24T00:08:16;9.02;;;4.55;;
72156;SDS011;60035;52.122;5.406;2023-06-24T00:10:49;8.75;;;4.40;;
72156;SDS011;60035;52.122;5.406;2023-06-24T00:13:16;8.68;;;4.53;;
72156;SDS011;60035;52.122;5.406;2023-06-24T00:15:44;8.75;;;4.38;;
72156;SDS011;60035;52.122;5.406;2023-06-24T00:18:10;10.35;;;4.78;;
72156;SDS011;60035;52.122;5.406;2023-06-24T00:20:37;7.95;;;4.20;;
72156;SDS011;60035;52.122;5.406;2023-06-24T00:23:05;8.45;;;3.95;;
72156;SDS011;60035;52.122;5.406;2023-06-24T00:25:32;8.05;;;4.20;;
72156;SDS011;60035;52.122;5.406;2023-06-24T00:27:58;9.02;;;4.50;;
72156;SDS011;60035;52.122;5.406;2023-06-24T00:30:25;8.45;;;4.20;;
72156;SDS011;60035;52.122;5.406;2023-06-24T00:32:52;9.45;;;4.15;;
72156;SDS011;60035;52.122;5.406;2023-06-24T00:35:19;11.90;;;5.63;;
72156;SDS011;60035;52.122;5.406;2023-06-24T00:37:46;10.57;;;4.88;;
72156;SDS011;60035;52.122;5.406;2023-06-24T00:40:13;10.10;;;5.38;;
72156;SDS011;60035;52.122;5.406;2023-06-24T00:42:44;9.45;;;5.35;;
72156;SDS011;60035;52.122;5.406;2023-06-24T00:45:12;11.88;;;4.57;;
72156;SDS011;60035;52.122;5.406;2023-06-24T00:47:39;9.38;;;5.53;;
72156;SDS011;60035;52.122;5.406;2023-06-24T00:50:06;9.65;;;5.55;;
72156;SDS011;60035;52.122;5.406;2023-06-24T00:52:34;9.52;;;5.35;;
72156;SDS011;60035;52.122;5.406;2023-06-24T00:55:03;11.32;;;5.30;;
72156;SDS011;60035;52.122;5.406;2023-06-24T00:57:30;9.35;;;5.57;;
72156;SDS011;60035;52.122;5.406;2023-06-24T00:59:57;10.27;;;5.20;;
72156;SDS011;60035;52.122;5.406;2023-06-24T01:02:26;10.20;;;5.50;;
72156;SDS011;60035;52.122;5.406;2023-06-24T01:04:54;10.77;;;5.47;;
72156;SDS011;60035;52.122;5.406;2023-06-24T01:07:21;11.43;;;5.50;;
72156;SDS011;60035;52.122;5.406;2023-06-24T01:09:47;12.05;;;5.53;;
72156;SDS011;60035;52.122;5.406;2023-06-24T01:12:15;10.30;;;5.00;;
72156;SDS011;60035;52.122;5.406;2023-06-24T01:14:41;10.90;;;5.57;;
72156;SDS011;60035;52.122;5.406;2023-06-24T01:17:10;11.68;;;6.00;;
72156;SDS011;60035;52.122;5.406;2023-06-24T01:33:22;9.40;;;4.47;;
72156;SDS011;60035;52.122;5.406;2023-06-24T01:35:53;9.13;;;5.05;;
72156;SDS011;60035;52.122;5.406;2023-06-24T01:38:22;9.45;;;5.10;;
72156;SDS011;60035;52.122;5.406;2023-06-24T01:40:52;10.20;;;5.00;;
72156;SDS011;60035;52.122;5.406;2023-06-24T01:43:20;8.57;;;4.30;;
72156;SDS011;60035;52.122;5.406;2023-06-24T01:45:50;9.13;;;4.88;;
72156;SDS011;60035;52.122;5.406;2023-06-24T01:48:25;9.07;;;5.22;;
72156;SDS011;60035;52.122;5.406;2023-06-24T01:50:58;8.85;;;4.82;;
72156;SDS011;60035;52.122;5.406;2023-06-24T01:53:27;9.82;;;5.38;;
72156;SDS011;60035;52.122;5.406;2023-06-24T01:55:55;9.75;;;5.28;;
72156;SDS011;60035;52.122;5.406;2023-06-24T01:58:25;10.52;;;4.82;;
72156;SDS011;60035;52.122;5.406;2023-06-24T02:00:51;9.10;;;5.00;;
72156;SDS011;60035;52.122;5.406;2023-06-24T02:03:19;8.68;;;4.57;;
72156;SDS011;60035;52.122;5.406;2023-06-24T02:05:47;9.60;;;4.97;;
72156;SDS011;60035;52.122;5.406;2023-06-24T02:08:15;10.77;;;5.30;;
72156;SDS011;60035;52.122;5.406;2023-06-24T02:10:43;10.85;;;6.15;;
72156;SDS011;60035;52.122;5.406;2023-06-24T02:13:12;9.38;;;5.10;;
72156;SDS011;60035;52.122;5.406;2023-06-24T02:15:39;10.77;;;4.70;;
72156;SDS011;60035;52.122;5.406;2023-06-24T02:18:08;11.68;;;4.88;;
72156;SDS011;60035;52.122;5.406;2023-06-24T02:20:37;10.30;;;5.55;;
72156;SDS011;60035;52.122;5.406;2023-06-24T02:23:06;13.93;;;6.03;;
72156;SDS011;60035;52.122;5.406;2023-06-24T02:25:35;9.55;;;5.10;;
72156;SDS011;60035;52.122;5.406;2023-06-24T02:28:05;9.68;;;5.05;;
72156;SDS011;60035;52.122;5.406;2023-06-24T02:30:37;12.57;;;5.20;;
72156;SDS011;60035;52.122;5.406;2023-06-24T02:33:05;11.10;;;5.35;;
72156;SDS011;60035;52.122;5.406;2023-06-24T02:35:32;10.30;;;5.53;;
72156;SDS011;60035;52.122;5.406;2023-06-24T02:37:59;10.55;;;5.40;;
72156;SDS011;60035;52.122;5.406;2023-06-24T02:40:26;11.02;;;6.00;;
72156;SDS011;60035;52.122;5.406;2023-06-24T02:42:53;12.32;;;5.97;;
72156;SDS011;60035;52.122;5.406;2023-06-24T02:45:20;11.35;;;5.47;;
72156;SDS011;60035;52.122;5.406;2023-06-24T02:47:47;10.50;;;5.75;;
72156;SDS011;60035;52.122;5.406;2023-06-24T02:50:16;11.52;;;5.70;;
72156;SDS011;60035;52.122;5.406;2023-06-24T02:52:43;11.40;;;6.13;;
72156;SDS011;60035;52.122;5.406;2023-06-24T02:55:12;10.35;;;5.85;;
72156;SDS011;60035;52.122;5.406;2023-06-24T02:57:39;11.60;;;5.90;;
72156;SDS011;60035;52.122;5.406;2023-06-24T03:00:06;10.60;;;5.18;;
72156;SDS011;60035;52.122;5.406;2023-06-24T03:02:38;10.70;;;5.80;;
72156;SDS011;60035;52.122;5.406;2023-06-24T03:05:05;10.88;;;5.15;;
72156;SDS011;60035;52.122;5.406;2023-06-24T03:07:33;9.80;;;5.32;;
72156;SDS011;60035;52.122;5.406;2023-06-24T03:10:03;9.95;;;5.68;;
72156;SDS011;60035;52.122;5.406;2023-06-24T03:12:31;10.63;;;6.00;;
72156;SDS011;60035;52.122;5.406;2023-06-24T03:14:58;12.52;;;5.20;;
72156;SDS011;60035;52.122;5.406;2023-06-24T03:17:26;11.93;;;5.50;;
72156;SDS011;60035;52.122;5.406;2023-06-24T03:19:53;11.23;;;5.82;;
72156;SDS011;60035;52.122;5.406;2023-06-24T03:22:20;10.00;;;5.68;;
72156;SDS011;60035;52.122;5.406;2023-06-24T03:24:47;11.05;;;6.00;;
72156;SDS011;60035;52.122;5.406;2023-06-24T03:27:15;11.63;;;6.28;;
72156;SDS011;60035;52.122;5.406;2023-06-24T03:29:41;12.07;;;5.65;;
72156;SDS011;60035;52.122;5.406;2023-06-24T03:32:08;11.27;;;5.90;;
72156;SDS011;60035;52.122;5.406;2023-06-24T03:34:34;10.38;;;5.72;;
72156;SDS011;60035;52.122;5.406;2023-06-24T03:37:01;11.23;;;6.05;;
72156;SDS011;60035;52.122;5.406;2023-06-24T03:39:30;11.35;;;5.90;;
72156;SDS011;60035;52.122;5.406;2023-06-24T03:41:57;11.15;;;6.15;;
72156;SDS011;60035;52.122;5.406;2023-06-24T03:44:23;11.13;;;6.07;;
72156;SDS011;60035;52.122;5.406;2023-06-24T03:46:50;10.93;;;5.35;;
72156;SDS011;60035;52.122;5.406;2023-06-24T03:49:16;9.77;;;5.32;;
72156;SDS011;60035;52.122;5.406;2023-06-24T03:51:44;10.15;;;5.43;;
72156;SDS011;60035;52.122;5.406;2023-06-24T03:54:11;11.20;;;5.70;;
72156;SDS011;60035;52.122;5.406;2023-06-24T03:56:37;10.80;;;6.18;;
72156;SDS011;60035;52.122;5.406;2023-06-24T03:59:04;10.90;;;5.10;;
72156;SDS011;60035;52.122;5.406;2023-06-24T04:01:32;10.88;;;5.90;;
72156;SDS011;60035;52.122;5.406;2023-06-24T04:03:58;10.98;;;5.97;;
72156;SDS011;60035;52.122;5.406;2023-06-24T04:06:25;11.63;;;6.45;;
72156;SDS011;60035;52.122;5.406;2023-06-24T04:08:52;11.65;;;6.18;;
72156;SDS011;60035;52.122;5.406;2023-06-24T04:11:18;11.35;;;5.65;;
72156;SDS011;60035;52.122;5.406;2023-06-24T04:13:45;11.15;;;5.90;;
72156;SDS011;60035;52.122;5.406;2023-06-24T04:16:12;12.15;;;6.07;;
72156;SDS011;60035;52.122;5.406;2023-06-24T04:18:39;12.20;;;6.30;;
72156;SDS011;60035;52.122;5.406;2023-06-24T04:21:06;11.38;;;6.47;;
72156;SDS011;60035;52.122;5.406;2023-06-24T04:23:33;10.25;;;5.57;;
72156;SDS011;60035;52.122;5.406;2023-06-24T04:25:59;11.95;;;6.15;;
72156;SDS011;60035;52.122;5.406;2023-06-24T04:28:26;10.63;;;5.65;;
72156;SDS011;60035;52.122;5.406;2023-06-24T04:30:53;10.75;;;5.97;;
72156;SDS011;60035;52.122;5.406;2023-06-24T04:33:20;13.18;;;6.40;;
72156;SDS011;60035;52.122;5.406;2023-06-24T04:35:48;11.50;;;6.07;;
72156;SDS011;60035;52.122;5.406;2023-06-24T04:38:14;13.05;;;6.78;;
72156;SDS011;60035;52.122;5.406;2023-06-24T04:40:44;12.90;;;6.93;;
72156;SDS011;60035;52.122;5.406;2023-06-24T04:43:11;11.85;;;6.57;;
72156;SDS011;60035;52.122;5.406;2023-06-24T04:45:38;12.38;;;7.15;;
72156;SDS011;60035;52.122;5.406;2023-06-24T04:48:04;11.63;;;6.32;;
72156;SDS011;60035;52.122;5.406;2023-06-24T04:50:31;11.02;;;6.53;;
72156;SDS011;60035;52.122;5.406;2023-06-24T04:52:58;11.35;;;6.50;;
72156;SDS011;60035;52.122;5.406;2023-06-24T04:55:24;10.98;;;5.18;;
72156;SDS011;60035;52.122;5.406;2023-06-24T04:57:51;11.45;;;6.30;;
72156;SDS011;60035;52.122;5.406;2023-06-24T05:00:17;12.88;;;6.53;;
72156;SDS011;60035;52.122;5.406;2023-06-24T05:02:44;11.43;;;6.50;;
72156;SDS011;60035;52.122;5.406;2023-06-24T05:05:11;12.70;;;6.22;;
72156;SDS011;60035;52.122;5.406;2023-06-24T05:07:38;12.18;;;6.70;;
72156;SDS011;60035;52.122;5.406;2023-06-24T05:10:05;12.85;;;6.38;;
72156;SDS011;60035;52.122;5.406;2023-06-24T05:12:32;12.02;;;6.72;;
72156;SDS011;60035;52.122;5.406;2023-06-24T05:14:58;11.07;;;5.78;;
72156;SDS011;60035;52.122;5.406;2023-06-24T05:17:25;11.95;;;6.07;;
72156;SDS011;60035;52.122;5.406;2023-06-24T05:19:52;10.30;;;4.80;;
72156;SDS011;60035;52.122;5.406;2023-06-24T05:22:18;10.98;;;5.88;;
72156;SDS011;60035;52.122;5.406;2023-06-24T05:24:45;10.77;;;6.00;;
72156;SDS011;60035;52.122;5.406;2023-06-24T05:27:12;9.73;;;4.93;;
72156;SDS011;60035;52.122;5.406;2023-06-24T05:29:38;11.40;;;4.90;;
72156;SDS011;60035;52.122;5.406;2023-06-24T05:32:05;9.85;;;4.82;;
72156;SDS011;60035;52.122;5.406;2023-06-24T05:34:32;10.75;;;5.13;;
72156;SDS011;60035;52.122;5.406;2023-06-24T05:37:00;9.13;;;4.40;;
72156;SDS011;60035;52.122;5.406;2023-06-24T05:39:27;10.00;;;4.45;;
72156;SDS011;60035;52.122;5.406;2023-06-24T05:41:53;9.20;;;4.18;;
72156;SDS011;60035;52.122;5.406;2023-06-24T05:44:20;8.50;;;3.50;;
72156;SDS011;60035;52.122;5.406;2023-06-24T05:46:46;8.80;;;4.45;;
72156;SDS011;60035;52.122;5.406;2023-06-24T05:49:13;9.20;;;4.10;;
72156;SDS011;60035;52.122;5.406;2023-06-24T05:51:39;9.23;;;3.97;;
72156;SDS011;60035;52.122;5.406;2023-06-24T05:54:06;9.13;;;3.88;;
72156;SDS011;60035;52.122;5.406;2023-06-24T05:56:34;9.77;;;4.00;;
72156;SDS011;60035;52.122;5.406;2023-06-24T05:59:05;7.50;;;3.70;;
72156;SDS011;60035;52.122;5.406;2023-06-24T06:01:32;7.95;;;3.97;;
72156;SDS011;60035;52.122;5.406;2023-06-24T06:03:58;8.95;;;3.55;;
72156;SDS011;60035;52.122;5.406;2023-06-24T06:06:25;7.60;;;3.50;;
72156;SDS011;60035;52.122;5.406;2023-06-24T06:08:51;6.45;;;3.30;;
72156;SDS011;60035;52.122;5.406;2023-06-24T06:11:18;8.65;;;4.13;;
72156;SDS011;60035;52.122;5.406;2023-06-24T06:13:44;9.63;;;3.78;;
72156;SDS011;60035;52.122;5.406;2023-06-24T06:16:11;9.82;;;3.90;;
72156;SDS011;60035;52.122;5.406;2023-06-24T06:18:37;7.80;;;3.10;;
72156;SDS011;60035;52.122;5.406;2023-06-24T06:21:04;9.15;;;3.75;;
72156;SDS011;60035;52.122;5.406;2023-06-24T06:23:30;8.07;;;3.20;;
72156;SDS011;60035;52.122;5.406;2023-06-24T06:25:57;8.30;;;3.60;;
72156;SDS011;60035;52.122;5.406;2023-06-24T06:28:24;8.55;;;3.50;;
72156;SDS011;60035;52.122;5.406;2023-06-24T06:30:50;9.10;;;3.33;;
72156;SDS011;60035;52.122;5.406;2023-06-24T06:33:17;7.43;;;3.60;;
72156;SDS011;60035;52.122;5.406;2023-06-24T06:35:44;9.95;;;3.35;;
72156;SDS011;60035;52.122;5.406;2023-06-24T06:38:11;10.50;;;3.30;;
72156;SDS011;60035;52.122;5.406;2023-06-24T06:40:37;8.93;;;2.92;;
72156;SDS011;60035;52.122;5.406;2023-06-24T06:43:04;7.22;;;3.45;;
72156;SDS011;60035;52.122;5.406;2023-06-24T06:45:30;7.43;;;3.30;;
72156;SDS011;60035;52.122;5.406;2023-06-24T06:47:58;7.05;;;3.40;;
72156;SDS011;60035;52.122;5.406;2023-06-24T06:50:24;7.78;;;2.80;;
72156;SDS011;60035;52.122;5.406;2023-06-24T06:52:51;7.47;;;3.30;;
72156;SDS011;60035;52.122;5.406;2023-06-24T06:55:17;7.28;;;3.20;;
72156;SDS011;60035;52.122;5.406;2023-06-24T06:57:44;7.10;;;3.17;;
72156;SDS011;60035;52.122;5.406;2023-06-24T07:00:11;8.30;;;3.75;;
72156;SDS011;60035;52.122;5.406;2023-06-24T07:02:38;7.97;;;3.08;;
72156;SDS011;60035;52.122;5.406;2023-06-24T07:05:05;6.32;;;2.67;;
72156;SDS011;60035;52.122;5.406;2023-06-24T07:07:31;6.28;;;3.10;;
72156;SDS011;60035;52.122;5.406;2023-06-24T07:09:59;6.75;;;3.08;;
72156;SDS011;60035;52.122;5.406;2023-06-24T07:12:25;7.32;;;3.08;;
72156;SDS011;60035;52.122;5.406;2023-06-24T07:14:51;6.13;;;3.03;;
72156;SDS011;60035;52.122;5.406;2023-06-24T07:17:18;8.15;;;3.05;;
72156;SDS011;60035;52.122;5.406;2023-06-24T07:19:45;6.88;;;2.70;;
72156;SDS011;60035;52.122;5.406;2023-06-24T07:22:11;7.25;;;2.90;;
72156;SDS011;60035;52.122;5.406;2023-06-24T07:24:38;7.00;;;2.70;;
72156;SDS011;60035;52.122;5.406;2023-06-24T07:27:04;6.90;;;3.08;;
72156;SDS011;60035;52.122;5.406;2023-06-24T07:29:31;7.97;;;2.95;;
72156;SDS011;60035;52.122;5.406;2023-06-24T07:31:58;6.22;;;2.65;;
72156;SDS011;60035;52.122;5.406;2023-06-24T07:34:25;6.63;;;3.17;;
72156;SDS011;60035;52.122;5.406;2023-06-24T07:36:51;7.07;;;2.92;;
72156;SDS011;60035;52.122;5.406;2023-06-24T07:39:18;6.53;;;3.13;;
72156;SDS011;60035;52.122;5.406;2023-06-24T07:41:45;6.72;;;2.72;;
72156;SDS011;60035;52.122;5.406;2023-06-24T07:44:11;8.25;;;3.10;;
72156;SDS011;60035;52.122;5.406;2023-06-24T07:46:38;7.93;;;3.00;;
72156;SDS011;60035;52.122;5.406;2023-06-24T07:49:04;6.10;;;2.70;;
72156;SDS011;60035;52.122;5.406;2023-06-24T07:51:31;7.82;;;2.92;;
72156;SDS011;60035;52.122;5.406;2023-06-24T07:53:57;7.30;;;2.97;;
72156;SDS011;60035;52.122;5.406;2023-06-24T07:56:24;8.00;;;2.88;;
72156;SDS011;60035;52.122;5.406;2023-06-24T07:58:51;6.50;;;3.08;;
72156;SDS011;60035;52.122;5.406;2023-06-24T08:01:17;6.85;;;3.15;;
72156;SDS011;60035;52.122;5.406;2023-06-24T08:03:44;7.10;;;2.65;;
72156;SDS011;60035;52.122;5.406;2023-06-24T08:06:11;7.07;;;2.90;;
72156;SDS011;60035;52.122;5.406;2023-06-24T08:08:37;7.80;;;3.30;;
72156;SDS011;60035;52.122;5.406;2023-06-24T08:11:04;7.20;;;2.97;;
72156;SDS011;60035;52.122;5.406;2023-06-24T08:13:31;7.35;;;2.70;;
72156;SDS011;60035;52.122;5.406;2023-06-24T08:15:58;7.25;;;2.83;;
72156;SDS011;60035;52.122;5.406;2023-06-24T08:18:25;6.10;;;2.88;;
72156;SDS011;60035;52.122;5.406;2023-06-24T08:20:53;6.47;;;2.95;;
72156;SDS011;60035;52.122;5.406;2023-06-24T08:23:20;6.05;;;2.50;;
72156;SDS011;60035;52.122;5.406;2023-06-24T08:25:46;7.65;;;2.92;;
72156;SDS011;60035;52.122;5.406;2023-06-24T08:28:13;7.78;;;3.05;;
72156;SDS011;60035;52.122;5.406;2023-06-24T08:30:39;6.95;;;2.90;;
72156;SDS011;60035;52.122;5.406;2023-06-24T08:33:06;7.38;;;3.15;;
72156;SDS011;60035;52.122;5.406;2023-06-24T08:35:33;7.40;;;2.83;;
72156;SDS011;60035;52.122;5.406;2023-06-24T08:38:00;7.38;;;2.75;;
72156;SDS011;60035;52.122;5.406;2023-06-24T08:40:27;6.43;;;2.72;;
72156;SDS011;60035;52.122;5.406;2023-06-24T08:42:53;7.53;;;3.08;;
72156;SDS011;60035;52.122;5.406;2023-06-24T08:45:21;8.70;;;3.10;;
72156;SDS011;60035;52.122;5.406;2023-06-24T08:47:47;7.78;;;2.97;;
72156;SDS011;60035;52.122;5.406;2023-06-24T08:50:15;7.82;;;3.20;;
72156;SDS011;60035;52.122;5.406;2023-06-24T08:52:50;5.68;;;2.90;;
72156;SDS011;60035;52.122;5.406;2023-06-24T08:55:19;7.57;;;2.95;;
72156;SDS011;60035;52.122;5.406;2023-06-24T08:57:54;9.45;;;3.47;;
72156;SDS011;60035;52.122;5.406;2023-06-24T09:00:20;7.22;;;2.72;;
72156;SDS011;60035;52.122;5.406;2023-06-24T09:02:47;9.30;;;3.17;;
72156;SDS011;60035;52.122;5.406;2023-06-24T09:05:14;7.75;;;3.30;;
72156;SDS011;60035;52.122;5.406;2023-06-24T09:07:44;6.47;;;2.95;;
72156;SDS011;60035;52.122;5.406;2023-06-24T09:10:10;7.28;;;3.30;;
72156;SDS011;60035;52.122;5.406;2023-06-24T09:12:54;7.55;;;3.22;;
72156;SDS011;60035;52.122;5.406;2023-06-24T09:15:21;6.18;;;2.72;;
72156;SDS011;60035;52.122;5.406;2023-06-24T09:17:47;6.05;;;3.15;;
72156;SDS011;60035;52.122;5.406;2023-06-24T09:20:14;7.47;;;3.05;;
72156;SDS011;60035;52.122;5.406;2023-06-24T09:22:41;9.57;;;3.70;;
72156;SDS011;60035;52.122;5.406;2023-06-24T09:25:08;7.50;;;3.42;;
72156;SDS011;60035;52.122;5.406;2023-06-24T09:27:34;6.85;;;2.92;;
72156;SDS011;60035;52.122;5.406;2023-06-24T09:30:01;9.55;;;3.85;;
72156;SDS011;60035;52.122;5.406;2023-06-24T09:32:44;7.15;;;2.60;;
72156;SDS011;60035;52.122;5.406;2023-06-24T09:35:11;9.07;;;3.50;;
72156;SDS011;60035;52.122;5.406;2023-06-24T09:37:38;8.45;;;3.17;;
72156;SDS011;60035;52.122;5.406;2023-06-24T09:40:05;7.63;;;3.78;;
72156;SDS011;60035;52.122;5.406;2023-06-24T09:42:34;8.65;;;3.50;;
72156;SDS011;60035;52.122;5.406;2023-06-24T09:45:05;7.90;;;3.40;;
72156;SDS011;60035;52.122;5.406;2023-06-24T09:47:32;9.38;;;4.05;;
72156;SDS011;60035;52.122;5.406;2023-06-24T09:49:59;8.95;;;3.90;;
72156;SDS011;60035;52.122;5.406;2023-06-24T09:52:28;8.90;;;3.72;;
72156;SDS011;60035;52.122;5.406;2023-06-24T09:54:57;9.35;;;3.40;;
72156;SDS011;60035;52.122;5.406;2023-06-24T09:57:28;8.27;;;3.75;;
72156;SDS011;60035;52.122;5.406;2023-06-24T09:59:58;7.65;;;3.08;;
72156;SDS011;60035;52.122;5.406;2023-06-24T10:02:25;7.60;;;3.92;;
72156;SDS011;60035;52.122;5.406;2023-06-24T10:04:52;8.05;;;3.65;;
72156;SDS011;60035;52.122;5.406;2023-06-24T10:07:19;7.88;;;3.80;;
72156;SDS011;60035;52.122;5.406;2023-06-24T10:09:46;6.35;;;3.00;;
72156;SDS011;60035;52.122;5.406;2023-06-24T10:12:12;6.72;;;3.22;;
72156;SDS011;60035;52.122;5.406;2023-06-24T10:14:39;6.95;;;3.40;;
72156;SDS011;60035;52.122;5.406;2023-06-24T10:17:05;12.10;;;4.57;;
72156;SDS011;60035;52.122;5.406;2023-06-24T10:19:38;8.18;;;3.63;;
72156;SDS011;60035;52.122;5.406;2023-06-24T10:22:09;7.15;;;3.53;;
72156;SDS011;60035;52.122;5.406;2023-06-24T10:24:40;10.38;;;4.40;;
72156;SDS011;60035;52.122;5.406;2023-06-24T10:27:10;8.73;;;4.30;;
72156;SDS011;60035;52.122;5.406;2023-06-24T10:29:44;7.60;;;3.83;;
72156;SDS011;60035;52.122;5.406;2023-06-24T10:32:12;11.40;;;4.07;;
72156;SDS011;60035;52.122;5.406;2023-06-24T10:34:40;8.07;;;3.83;;
72156;SDS011;60035;52.122;5.406;2023-06-24T10:37:12;9.32;;;4.72;;
72156;SDS011;60035;52.122;5.406;2023-06-24T10:50:03;7.82;;;3.95;;
72156;SDS011;60035;52.122;5.406;2023-06-24T10:52:30;8.77;;;3.58;;
72156;SDS011;60035;52.122;5.406;2023-06-24T10:54:57;8.75;;;3.85;;
72156;SDS011;60035;52.122;5.406;2023-06-24T10:57:25;8.93;;;3.78;;
72156;SDS011;60035;52.122;5.406;2023-06-24T10:59:53;7.63;;;4.03;;
72156;SDS011;60035;52.122;5.406;2023-06-24T11:02:25;7.95;;;3.78;;
72156;SDS011;60035;52.122;5.406;2023-06-24T11:04:56;9.65;;;4.13;;
72156;SDS011;60035;52.122;5.406;2023-06-24T11:07:28;7.93;;;4.25;;
72156;SDS011;60035;52.122;5.406;2023-06-24T11:09:58;7.40;;;4.00;;
72156;SDS011;60035;52.122;5.406;2023-06-24T11:12:26;8.32;;;4.25;;
72156;SDS011;60035;52.122;5.406;2023-06-24T11:14:57;9.65;;;4.28;;
72156;SDS011;60035;52.122;5.406;2023-06-24T11:17:25;10.35;;;5.40;;
72156;SDS011;60035;52.122;5.406;2023-06-24T11:19:53;9.80;;;4.65;;
72156;SDS011;60035;52.122;5.406;2023-06-24T11:22:21;9.57;;;4.70;;
72156;SDS011;60035;52.122;5.406;2023-06-24T11:24:49;8.35;;;4.22;;
72156;SDS011;60035;52.122;5.406;2023-06-24T11:27:16;9.25;;;3.53;;
72156;SDS011;60035;52.122;5.406;2023-06-24T11:29:57;10.32;;;5.35;;
72156;SDS011;60035;52.122;5.406;2023-06-24T11:32:34;10.68;;;4.60;;
72156;SDS011;60035;52.122;5.406;2023-06-24T11:35:02;12.20;;;5.22;;
72156;SDS011;60035;52.122;5.406;2023-06-24T11:37:30;10.52;;;4.93;;
72156;SDS011;60035;52.122;5.406;2023-06-24T11:40:08;9.85;;;4.90;;
72156;SDS011;60035;52.122;5.406;2023-06-24T11:42:36;8.20;;;4.18;;
72156;SDS011;60035;52.122;5.406;2023-06-24T11:45:04;8.57;;;4.47;;
72156;SDS011;60035;52.122;5.406;2023-06-24T11:47:32;9.85;;;4.03;;
72156;SDS011;60035;52.122;5.406;2023-06-24T11:50:00;8.10;;;3.83;;
72156;SDS011;60035;52.122;5.406;2023-06-24T11:55:11;7.35;;;3.90;;
72156;SDS011;60035;52.122;5.406;2023-06-24T11:58:03;8.80;;;4.60;;
72156;SDS011;60035;52.122;5.406;2023-06-24T12:03:04;7.75;;;4.25;;
72156;SDS011;60035;52.122;5.406;2023-06-24T12:05:36;7.30;;;4.35;;
72156;SDS011;60035;52.122;5.406;2023-06-24T12:08:06;9.23;;;4.70;;
72156;SDS011;60035;52.122;5.406;2023-06-24T12:10:35;9.48;;;4.15;;
72156;SDS011;60035;52.122;5.406;2023-06-24T12:13:03;8.07;;;3.78;;
72156;SDS011;60035;52.122;5.406;2023-06-24T12:15:32;8.35;;;3.80;;
72156;SDS011;60035;52.122;5.406;2023-06-24T12:17:59;10.18;;;3.90;;
72156;SDS011;60035;52.122;5.406;2023-06-24T12:20:28;10.88;;;5.13;;
72156;SDS011;60035;52.122;5.406;2023-06-24T12:22:59;8.38;;;4.03;;
72156;SDS011;60035;52.122;5.406;2023-06-24T12:25:25;7.80;;;4.53;;
72156;SDS011;60035;52.122;5.406;2023-06-24T12:28:00;8.63;;;4.57;;
72156;SDS011;60035;52.122;5.406;2023-06-24T12:30:27;8.40;;;4.57;;
72156;SDS011;60035;52.122;5.406;2023-06-24T12:32:54;9.38;;;4.05;;
72156;SDS011;60035;52.122;5.406;2023-06-24T12:35:21;10.27;;;4.65;;
72156;SDS011;60035;52.122;5.406;2023-06-24T12:37:51;8.30;;;4.35;;
72156;SDS011;60035;52.122;5.406;2023-06-24T12:40:18;8.90;;;4.32;;
72156;SDS011;60035;52.122;5.406;2023-06-24T12:42:45;9.25;;;4.50;;
72156;SDS011;60035;52.122;5.406;2023-06-24T12:45:11;10.30;;;4.57;;
72156;SDS011;60035;52.122;5.406;2023-06-24T12:47:38;8.75;;;4.00;;
72156;SDS011;60035;52.122;5.406;2023-06-24T12:50:05;8.70;;;4.15;;
72156;SDS011;60035;52.122;5.406;2023-06-24T12:55:01;9.50;;;4.40;;
72156;SDS011;60035;52.122;5.406;2023-06-24T12:57:30;9.93;;;4.35;;
72156;SDS011;60035;52.122;5.406;2023-06-24T12:59:57;11.10;;;4.18;;
72156;SDS011;60035;52.122;5.406;2023-06-24T13:02:23;8.68;;;4.32;;
72156;SDS011;60035;52.122;5.406;2023-06-24T13:04:50;9.27;;;4.30;;
72156;SDS011;60035;52.122;5.406;2023-06-24T13:07:16;9.27;;;4.10;;
72156;SDS011;60035;52.122;5.406;2023-06-24T13:09:43;7.43;;;3.97;;
72156;SDS011;60035;52.122;5.406;2023-06-24T13:12:09;6.97;;;3.50;;
72156;SDS011;60035;52.122;5.406;2023-06-24T13:14:36;7.55;;;4.10;;
72156;SDS011;60035;52.122;5.406;2023-06-24T13:17:03;8.02;;;4.53;;
72156;SDS011;60035;52.122;5.406;2023-06-24T13:19:30;9.32;;;3.70;;
72156;SDS011;60035;52.122;5.406;2023-06-24T13:21:58;7.35;;;4.28;;
72156;SDS011;60035;52.122;5.406;2023-06-24T13:24:25;9.60;;;4.35;;
72156;SDS011;60035;52.122;5.406;2023-06-24T13:26:52;8.30;;;4.00;;
72156;SDS011;60035;52.122;5.406;2023-06-24T13:29:18;7.82;;;4.35;;
72156;SDS011;60035;52.122;5.406;2023-06-24T13:31:47;9.95;;;4.00;;
72156;SDS011;60035;52.122;5.406;2023-06-24T13:34:14;7.68;;;4.18;;
72156;SDS011;60035;52.122;5.406;2023-06-24T13:36:41;9.52;;;4.15;;
72156;SDS011;60035;52.122;5.406;2023-06-24T13:39:08;7.03;;;3.63;;
72156;SDS011;60035;52.122;5.406;2023-06-24T13:41:38;10.35;;;4.43;;
72156;SDS011;60035;52.122;5.406;2023-06-24T13:44:05;8.02;;;3.90;;
72156;SDS011;60035;52.122;5.406;2023-06-24T13:46:32;8.00;;;3.83;;
72156;SDS011;60035;52.122;5.406;2023-06-24T13:48:59;7.57;;;3.80;;
72156;SDS011;60035;52.122;5.406;2023-06-24T13:51:30;6.95;;;4.00;;
72156;SDS011;60035;52.122;5.406;2023-06-24T13:53:56;7.45;;;4.13;;
72156;SDS011;60035;52.122;5.406;2023-06-24T13:56:23;7.20;;;3.80;;
72156;SDS011;60035;52.122;5.406;2023-06-24T13:58:51;11.13;;;4.00;;
72156;SDS011;60035;52.122;5.406;2023-06-24T14:01:19;8.23;;;4.18;;
72156;SDS011;60035;52.122;5.406;2023-06-24T14:03:46;9.57;;;4.00;;
72156;SDS011;60035;52.122;5.406;2023-06-24T14:06:14;6.50;;;3.60;;
72156;SDS011;60035;52.122;5.406;2023-06-24T14:08:43;6.93;;;3.85;;
72156;SDS011;60035;52.122;5.406;2023-06-24T14:11:10;8.13;;;4.13;;
72156;SDS011;60035;52.122;5.406;2023-06-24T14:13:37;6.78;;;3.65;;
72156;SDS011;60035;52.122;5.406;2023-06-24T14:16:04;7.00;;;3.80;;
72156;SDS011;60035;52.122;5.406;2023-06-24T14:18:31;8.52;;;4.03;;
72156;SDS011;60035;52.122;5.406;2023-06-24T14:20:59;8.02;;;3.90;;
72156;SDS011;60035;52.122;5.406;2023-06-24T14:23:27;8.02;;;3.90;;
72156;SDS011;60035;52.122;5.406;2023-06-24T14:25:55;8.65;;;4.20;;
72156;SDS011;60035;52.122;5.406;2023-06-24T14:28:22;8.27;;;3.33;;
72156;SDS011;60035;52.122;5.406;2023-06-24T14:30:49;7.75;;;3.78;;
72156;SDS011;60035;52.122;5.406;2023-06-24T14:33:15;8.30;;;4.03;;
72156;SDS011;60035;52.122;5.406;2023-06-24T14:35:42;7.65;;;4.35;;
72156;SDS011;60035;52.122;5.406;2023-06-24T14:38:09;6.85;;;3.90;;
72156;SDS011;60035;52.122;5.406;2023-06-24T14:40:35;6.95;;;4.05;;
72156;SDS011;60035;52.122;5.406;2023-06-24T14:43:02;8.40;;;3.67;;
72156;SDS011;60035;52.122;5.406;2023-06-24T14:45:29;7.10;;;4.13;;
72156;SDS011;60035;52.122;5.406;2023-06-24T14:47:55;8.38;;;4.18;;
72156;SDS011;60035;52.122;5.406;2023-06-24T14:50:23;8.73;;;4.18;;
72156;SDS011;60035;52.122;5.406;2023-06-24T14:52:50;7.60;;;3.90;;
72156;SDS011;60035;52.122;5.406;2023-06-24T14:55:17;7.28;;;3.90;;
72156;SDS011;60035;52.122;5.406;2023-06-24T14:57:43;7.55;;;4.07;;
72156;SDS011;60035;52.122;5.406;2023-06-24T15:00:11;8.55;;;3.80;;
72156;SDS011;60035;52.122;5.406;2023-06-24T15:02:38;8.10;;;3.78;;
72156;SDS011;60035;52.122;5.406;2023-06-24T15:05:05;6.90;;;3.55;;
72156;SDS011;60035;52.122;5.406;2023-06-24T15:07:32;6.72;;;4.00;;
72156;SDS011;60035;52.122;5.406;2023-06-24T15:09:58;8.30;;;4.30;;
72156;SDS011;60035;52.122;5.406;2023-06-24T15:12:25;7.22;;;4.15;;
72156;SDS011;60035;52.122;5.406;2023-06-24T15:14:51;9.20;;;3.72;;
72156;SDS011;60035;52.122;5.406;2023-06-24T15:17:18;7.88;;;3.78;;